createdAt,value
2023-01-17T00:00:01.626Z,35.4400
2023-01-17T00:01:03.973Z,35.3750
2023-01-17T00:02:06.327Z,35.3750
2023-01-17T00:03:06.528Z,35.3660
2023-01-17T00:04:08.971Z,35.2910
2023-01-17T00:05:11.321Z,35.3170
2023-01-17T00:06:13.743Z,35.3060
2023-01-17T00:07:16.083Z,35.3480
2023-01-17T00:08:16.310Z,35.3300
2023-01-17T00:09:18.701Z,35.3290
2023-01-17T00:10:21.076Z,35.2850
2023-01-17T00:11:23.465Z,35.3110
2023-01-17T00:12:25.787Z,35.2710
2023-01-17T00:13:28.131Z,35.2660
2023-01-17T00:14:30.534Z,35.2780
2023-01-17T00:15:32.910Z,35.2810
2023-01-17T00:16:33.193Z,35.2700
2023-01-17T00:17:35.555Z,35.2540
2023-01-17T00:18:37.945Z,35.2700
2023-01-17T00:19:40.290Z,35.2790
2023-01-17T00:20:40.553Z,35.2850
2023-01-17T00:21:42.928Z,35.2680
2023-01-17T00:22:45.213Z,35.2640
2023-01-17T00:23:47.521Z,35.2270
2023-01-17T00:24:49.875Z,35.2740
2023-01-17T00:25:50.085Z,35.2000
2023-01-17T00:26:52.483Z,35.1620
2023-01-17T00:27:54.828Z,35.1250
2023-01-17T00:28:57.197Z,35.0980
2023-01-17T00:29:59.604Z,35.0840
2023-01-17T00:30:59.949Z,35.1310
2023-01-17T00:32:02.262Z,35.1520
2023-01-17T00:33:04.632Z,35.1590
2023-01-17T00:34:07.031Z,35.1310
2023-01-17T00:35:07.281Z,35.1520
2023-01-17T00:36:09.697Z,35.1460
2023-01-17T00:37:12.007Z,35.1020
2023-01-17T00:38:14.260Z,35.1290
2023-01-17T00:39:14.423Z,35.1760
2023-01-17T00:40:16.687Z,35.1370
2023-01-17T00:41:18.953Z,35.1220
2023-01-17T00:42:21.338Z,35.1460
2023-01-17T00:43:23.716Z,35.0920
2023-01-17T00:44:26.112Z,35.0880
2023-01-17T00:45:26.352Z,35.0500
2023-01-17T00:46:28.755Z,35.0500
2023-01-17T00:47:31.150Z,35.0510
2023-01-17T00:48:31.376Z,35.1220
2023-01-17T00:49:33.778Z,35.0820
2023-01-17T00:50:36.150Z,35.0800
2023-01-17T00:51:38.586Z,35.0380
2023-01-17T00:52:38.912Z,34.9520
2023-01-17T00:53:41.169Z,34.9450
2023-01-17T00:54:43.538Z,35.0130
2023-01-17T00:55:45.934Z,34.9690
2023-01-17T00:56:48.316Z,34.9600
2023-01-17T00:57:48.621Z,34.9520
2023-01-17T00:58:50.955Z,34.9110
2023-01-17T00:59:53.342Z,34.9220
2023-01-17T01:00:55.855Z,34.8940
2023-01-17T01:01:56.062Z,34.9150
2023-01-17T01:02:58.314Z,34.8830
2023-01-17T01:04:00.645Z,34.8750
2023-01-17T01:05:02.955Z,34.9000
2023-01-17T01:06:05.337Z,34.9760
2023-01-17T01:07:05.499Z,35.0190
2023-01-17T01:08:07.813Z,34.9780
2023-01-17T01:09:10.068Z,34.9730
2023-01-17T01:10:12.367Z,34.8910
2023-01-17T01:11:14.586Z,34.8450
2023-01-17T01:12:16.874Z,34.8450
2023-01-17T01:13:17.033Z,34.8400
2023-01-17T01:14:19.284Z,34.8480
2023-01-17T01:15:21.548Z,34.8330
2023-01-17T01:16:24.036Z,34.8360
2023-01-17T01:17:26.283Z,34.8630
2023-01-17T01:18:28.687Z,34.8500
2023-01-17T01:19:31.011Z,34.8920
2023-01-17T01:20:31.240Z,34.8920
2023-01-17T01:21:33.601Z,34.8890
2023-01-17T01:22:36.039Z,34.8100
2023-01-17T01:23:38.361Z,34.8220
2023-01-17T01:24:40.636Z,34.8100
2023-01-17T01:25:42.985Z,34.7480
2023-01-17T01:26:45.353Z,34.7030
2023-01-17T01:27:47.706Z,34.7080
2023-01-17T01:28:47.949Z,34.6830
2023-01-17T01:29:50.290Z,34.6940
2023-01-17T01:30:52.675Z,34.6070
2023-01-17T01:31:55.050Z,34.6110
2023-01-17T01:32:57.455Z,34.6360
2023-01-17T01:33:57.735Z,34.7090
2023-01-17T01:35:00.111Z,34.7360
2023-01-17T01:36:02.488Z,34.7380
2023-01-17T01:37:04.871Z,34.6880
2023-01-17T01:38:05.088Z,34.6920
2023-01-17T01:39:07.482Z,34.6600
2023-01-17T01:40:09.720Z,34.6760
2023-01-17T01:41:12.066Z,34.6950
2023-01-17T01:42:14.391Z,34.7320
2023-01-17T01:43:14.600Z,34.7090
2023-01-17T01:44:17.005Z,34.6340
2023-01-17T01:45:19.343Z,34.5810
2023-01-17T01:46:21.681Z,34.6120
2023-01-17T01:47:21.840Z,34.6300
2023-01-17T01:48:24.108Z,34.6250
2023-01-17T01:49:26.452Z,34.6290
2023-01-17T01:50:26.592Z,34.5970
2023-01-17T01:51:28.952Z,34.5850
2023-01-17T01:52:31.299Z,34.5760
2023-01-17T01:53:33.683Z,34.6260
2023-01-17T01:54:33.837Z,34.6350
2023-01-17T01:55:36.219Z,34.5610
2023-01-17T01:56:38.494Z,34.5440
2023-01-17T01:57:40.840Z,34.5560
2023-01-17T01:58:43.172Z,34.5480
2023-01-17T01:59:43.412Z,34.5650
2023-01-17T02:00:45.882Z,34.5400
2023-01-17T02:01:48.287Z,34.5720
2023-01-17T02:02:50.464Z,34.5540
2023-01-17T02:03:50.756Z,34.5370
2023-01-17T02:04:53.019Z,34.5000
2023-01-17T02:05:55.405Z,34.5140
2023-01-17T02:06:57.807Z,34.5210
2023-01-17T02:08:00.198Z,34.5000
2023-01-17T02:09:00.476Z,34.5760
2023-01-17T02:10:02.900Z,34.5230
2023-01-17T02:11:05.262Z,34.5230
2023-01-17T02:12:07.675Z,34.4700
2023-01-17T02:13:07.928Z,34.4890
2023-01-17T02:14:10.328Z,34.4760
2023-01-17T02:15:12.760Z,34.4100
2023-01-17T02:16:15.215Z,34.3890
2023-01-17T02:17:15.318Z,34.3510
2023-01-17T02:18:17.659Z,34.3540
2023-01-17T02:19:19.993Z,34.3630
2023-01-17T02:20:22.399Z,34.3570
2023-01-17T02:21:22.569Z,34.3840
2023-01-17T02:22:24.938Z,34.3570
2023-01-17T02:23:27.302Z,34.3630
2023-01-17T02:24:29.708Z,34.3800
2023-01-17T02:25:32.121Z,34.3780
2023-01-17T02:26:32.378Z,34.3890
2023-01-17T02:27:34.783Z,34.4110
2023-01-17T02:28:37.179Z,34.4480
2023-01-17T02:29:39.562Z,34.4520
2023-01-17T02:30:39.813Z,34.4540
2023-01-17T02:31:42.192Z,34.4630
2023-01-17T02:34:08.515Z,34.5370
2023-01-17T02:35:10.771Z,34.4600
2023-01-17T02:36:13.192Z,34.3910
2023-01-17T02:37:15.506Z,34.3800
2023-01-17T02:38:15.737Z,34.3570
2023-01-17T02:39:18.092Z,34.3240
2023-01-17T02:40:20.436Z,34.3580
2023-01-17T02:41:22.788Z,34.3430
2023-01-17T02:42:25.127Z,34.3170
2023-01-17T02:43:25.327Z,34.3530
2023-01-17T02:44:27.707Z,34.3380
2023-01-17T02:45:30.102Z,34.3320
2023-01-17T02:46:32.482Z,34.3090
2023-01-17T02:47:32.657Z,34.3470
2023-01-17T02:48:35.027Z,34.3210
2023-01-17T02:49:37.378Z,34.3210
2023-01-17T02:50:39.750Z,34.2710
2023-01-17T02:51:42.133Z,34.2990
2023-01-17T02:52:42.291Z,34.3010
2023-01-17T02:53:44.641Z,34.2740
2023-01-17T02:54:46.998Z,34.2930
2023-01-17T02:55:49.375Z,34.2820
2023-01-17T02:56:51.839Z,34.2610
2023-01-17T02:57:51.955Z,34.2760
2023-01-17T02:58:54.337Z,34.2120
2023-01-17T02:59:56.664Z,34.1970
2023-01-17T03:00:59.179Z,34.1290
2023-01-17T03:02:01.596Z,34.2200
2023-01-17T03:02:18.700Z,34.2230
2023-01-17T03:03:20.855Z,34.1780
2023-01-17T03:04:23.220Z,34.1500
2023-01-17T03:05:25.592Z,34.1460
2023-01-17T03:06:25.828Z,34.1290
2023-01-17T03:07:28.267Z,34.1220
2023-01-17T03:08:30.484Z,34.1010
2023-01-17T03:09:32.869Z,34.0930
2023-01-17T03:10:35.261Z,34.1080
2023-01-17T03:11:35.502Z,34.1720
2023-01-17T03:12:37.890Z,34.1720
2023-01-17T03:13:40.200Z,34.1620
2023-01-17T03:14:42.569Z,34.1910
2023-01-17T03:15:42.816Z,34.1970
2023-01-17T03:16:45.207Z,34.2080
2023-01-17T03:17:47.532Z,34.1800
2023-01-17T03:18:49.897Z,34.1660
2023-01-17T03:19:52.290Z,34.1380
2023-01-17T03:20:52.513Z,34.1270
2023-01-17T03:21:54.850Z,34.1140
2023-01-17T03:22:57.184Z,34.1210
2023-01-17T03:23:59.471Z,34.1230
2023-01-17T03:25:01.773Z,34.0740
2023-01-17T03:26:01.916Z,34.0420
2023-01-17T03:27:04.333Z,33.9810
2023-01-17T03:28:06.720Z,33.9670
2023-01-17T03:29:09.088Z,33.8790
2023-01-17T03:30:11.433Z,33.8720
2023-01-17T03:31:11.639Z,33.8920
2023-01-17T03:32:13.967Z,33.9460
2023-01-17T03:33:16.380Z,33.9620
2023-01-17T03:34:18.732Z,34.0170
2023-01-17T03:35:21.108Z,34.0270
2023-01-17T03:36:21.326Z,34.0340
2023-01-17T03:37:23.660Z,34.0170
2023-01-17T03:38:26.014Z,34.0000
2023-01-17T03:39:28.354Z,34.0080
2023-01-17T03:40:28.556Z,33.9150
2023-01-17T03:41:30.933Z,33.9180
2023-01-17T03:42:33.318Z,33.9470
2023-01-17T03:43:35.712Z,33.9370
2023-01-17T03:44:38.044Z,33.9970
2023-01-17T03:45:38.310Z,34.0980
2023-01-17T03:46:40.610Z,34.0830
2023-01-17T03:47:42.972Z,33.9890
2023-01-17T03:48:45.381Z,33.9540
2023-01-17T03:49:45.551Z,33.9160
2023-01-17T03:50:47.983Z,33.9100
2023-01-17T03:51:50.273Z,33.8610
2023-01-17T03:52:52.570Z,33.8880
2023-01-17T03:53:54.932Z,33.9060
2023-01-17T03:54:55.071Z,33.9330
2023-01-17T03:55:57.422Z,33.8490
2023-01-17T03:56:59.728Z,33.8490
2023-01-17T03:58:02.094Z,33.8540
2023-01-17T03:59:04.443Z,33.8400
2023-01-17T04:00:06.784Z,33.7940
2023-01-17T04:01:07.110Z,33.7980
2023-01-17T04:02:09.390Z,33.7840
2023-01-17T04:03:11.679Z,33.8510
2023-01-17T04:04:14.083Z,33.8470
2023-01-17T04:05:16.399Z,33.7740
2023-01-17T04:06:16.590Z,33.7800
2023-01-17T04:07:18.942Z,33.8150
2023-01-17T04:08:21.285Z,33.8220
2023-01-17T04:09:23.753Z,33.8470
2023-01-17T04:10:25.913Z,33.8850
2023-01-17T04:11:26.053Z,33.9150
2023-01-17T04:12:28.418Z,33.9520
2023-01-17T04:13:30.760Z,33.9410
2023-01-17T04:14:33.232Z,33.9600
2023-01-17T04:15:33.322Z,33.9340
2023-01-17T04:16:35.729Z,33.9200
2023-01-17T04:17:38.072Z,33.9050
2023-01-17T04:18:40.421Z,33.9170
2023-01-17T04:19:42.842Z,33.9840
2023-01-17T04:20:43.071Z,33.8740
2023-01-17T04:21:45.461Z,33.6710
2023-01-17T04:22:47.846Z,33.7890
2023-01-17T04:23:50.236Z,33.9340
2023-01-17T04:24:35.472Z,33.9630
2023-01-17T04:25:37.850Z,34.0320
2023-01-17T04:26:40.221Z,34.1010
2023-01-17T04:27:40.444Z,34.1510
2023-01-17T04:28:42.800Z,34.1900
2023-01-17T04:29:46.765Z,34.2080
2023-01-17T04:30:47.766Z,34.3160
2023-01-17T04:31:50.054Z,34.3800
2023-01-17T04:32:50.199Z,34.2730
2023-01-17T04:33:52.588Z,34.1710
2023-01-17T04:34:54.969Z,34.1860
2023-01-17T04:35:57.371Z,34.2230
2023-01-17T04:36:57.581Z,34.3940
2023-01-17T04:37:59.980Z,34.4930
2023-01-17T04:39:02.364Z,34.5650
2023-01-17T04:40:04.763Z,34.4520
2023-01-17T04:41:05.017Z,34.4230
2023-01-17T04:42:07.401Z,34.2920
2023-01-17T04:43:09.775Z,34.3220
2023-01-17T04:44:12.206Z,34.3740
2023-01-17T04:45:12.431Z,34.3790
2023-01-17T04:46:14.929Z,34.4720
2023-01-17T04:47:17.183Z,34.6250
2023-01-17T04:48:19.583Z,34.5830
2023-01-17T04:49:19.817Z,34.5620
2023-01-17T04:50:22.178Z,34.5080
2023-01-17T04:51:24.593Z,34.5550
2023-01-17T04:52:26.986Z,34.5050
2023-01-17T04:53:29.345Z,34.5500
2023-01-17T04:54:29.626Z,34.5430
2023-01-17T04:55:32.030Z,34.5310
2023-01-17T04:56:34.532Z,34.5190
2023-01-17T04:57:36.792Z,34.5430
2023-01-17T04:58:37.010Z,34.5850
2023-01-17T04:59:39.326Z,34.6460
2023-01-17T05:00:41.649Z,34.7700
2023-01-17T05:01:44.043Z,34.8450
2023-01-17T05:02:44.702Z,34.7380
2023-01-17T05:03:46.511Z,34.7380
2023-01-17T05:04:48.857Z,34.6920
2023-01-17T05:05:51.167Z,34.5760
2023-01-17T05:06:53.546Z,34.6550
2023-01-17T05:07:53.705Z,34.7520
2023-01-17T05:08:56.054Z,34.7400
2023-01-17T05:09:58.421Z,34.7520
2023-01-17T05:11:00.766Z,34.7400
2023-01-17T05:12:03.149Z,34.7000
2023-01-17T05:13:03.362Z,34.6550
2023-01-17T05:14:05.726Z,34.5880
2023-01-17T05:15:08.148Z,34.5970
2023-01-17T05:16:10.560Z,34.6120
2023-01-17T05:17:12.912Z,34.6510
2023-01-17T05:18:13.140Z,34.6080
2023-01-17T05:19:15.483Z,34.6150
2023-01-17T05:20:17.829Z,34.5470
2023-01-17T05:21:20.170Z,34.5570
2023-01-17T05:22:20.405Z,34.5620
2023-01-17T05:23:22.737Z,34.5910
2023-01-17T05:24:25.108Z,34.6370
2023-01-17T05:25:27.483Z,34.7050
2023-01-17T05:26:29.868Z,34.7620
2023-01-17T05:27:30.153Z,34.7840
2023-01-17T05:28:32.477Z,34.7840
2023-01-17T05:29:24.615Z,34.8470
2023-01-17T05:31:26.693Z,34.8370
2023-01-17T05:32:28.956Z,34.8500
2023-01-17T05:33:31.271Z,34.7930
2023-01-17T05:34:33.570Z,34.8040
2023-01-17T05:35:33.782Z,34.8270
2023-01-17T05:36:36.112Z,34.7510
2023-01-17T05:37:38.478Z,34.7450
2023-01-17T05:38:40.836Z,34.7120
2023-01-17T05:39:43.176Z,34.6800
2023-01-17T05:40:43.380Z,34.7070
2023-01-17T05:41:45.752Z,34.6430
2023-01-17T05:42:48.074Z,34.6660
2023-01-17T05:43:50.477Z,34.7340
2023-01-17T05:44:52.777Z,34.7660
2023-01-17T05:45:53.049Z,34.7510
2023-01-17T05:46:55.348Z,34.7950
2023-01-17T05:47:57.665Z,34.7390
2023-01-17T05:49:00.060Z,34.7350
2023-01-17T05:50:02.332Z,34.6810
2023-01-17T05:51:02.509Z,34.6860
2023-01-17T05:52:04.822Z,34.6880
2023-01-17T05:53:07.169Z,34.6760
2023-01-17T05:54:09.684Z,34.6880
2023-01-17T05:55:11.891Z,34.7040
2023-01-17T05:56:14.298Z,34.6400
2023-01-17T05:57:16.605Z,34.6200
2023-01-17T05:58:19.031Z,34.6380
2023-01-17T05:59:35.929Z,34.5930
2023-01-17T06:00:23.650Z,34.3870
2023-01-17T06:01:25.908Z,32.5240
2023-01-17T06:02:26.189Z,30.9670
2023-01-17T06:03:28.523Z,31.0960
2023-01-17T06:04:30.962Z,32.2640
2023-01-17T06:05:33.235Z,33.6000
2023-01-17T06:06:33.407Z,34.0150
2023-01-17T06:07:35.770Z,34.2790
2023-01-17T06:08:38.127Z,34.3430
2023-01-17T06:09:40.504Z,34.3480
2023-01-17T06:10:42.828Z,34.3050
2023-01-17T06:11:43.041Z,34.2240
2023-01-17T06:12:45.375Z,34.1560
2023-01-17T06:13:47.699Z,34.1510
2023-01-17T06:14:50.065Z,34.0720
2023-01-17T06:15:52.371Z,33.9790
2023-01-17T06:16:52.447Z,33.9420
2023-01-17T06:17:54.729Z,33.8940
2023-01-17T06:18:57.093Z,33.8620
2023-01-17T06:19:59.579Z,33.9200
2023-01-17T06:21:01.822Z,33.9330
2023-01-17T06:22:04.118Z,33.8800
2023-01-17T06:23:04.478Z,33.9150
2023-01-17T06:24:06.749Z,33.9060
2023-01-17T06:25:09.138Z,33.9040
2023-01-17T06:26:11.468Z,33.8880
2023-01-17T06:27:11.660Z,33.8640
2023-01-17T06:28:14.016Z,33.9110
2023-01-17T06:29:16.306Z,33.8660
2023-01-17T06:30:18.600Z,33.8480
2023-01-17T06:31:20.924Z,33.7950
2023-01-17T06:32:23.302Z,33.1450
2023-01-17T06:33:23.560Z,33.5820
2023-01-17T06:34:25.925Z,33.8590
2023-01-17T06:35:28.330Z,34.0240
2023-01-17T06:36:30.699Z,34.0590
2023-01-17T06:37:33.054Z,34.0410
2023-01-17T06:38:33.283Z,34.0070
2023-01-17T06:39:35.653Z,33.9510
2023-01-17T06:40:38.057Z,33.9050
2023-01-17T06:41:40.426Z,33.8250
2023-01-17T06:42:42.787Z,33.7500
2023-01-17T06:43:45.196Z,33.7630
2023-01-17T06:44:47.543Z,33.7820
2023-01-17T06:45:49.863Z,33.7070
2023-01-17T06:46:50.158Z,33.7350
2023-01-17T06:47:52.461Z,33.6280
2023-01-17T06:48:54.877Z,33.5490
2023-01-17T06:49:57.222Z,33.5820
2023-01-17T06:50:57.531Z,33.5930
2023-01-17T06:51:59.855Z,33.6440
2023-01-17T06:53:02.239Z,33.6750
2023-01-17T06:54:04.627Z,33.6690
2023-01-17T06:55:04.894Z,33.7330
2023-01-17T06:56:07.425Z,33.6390
2023-01-17T06:57:09.719Z,33.7070
2023-01-17T06:58:12.138Z,33.6960
2023-01-17T06:59:12.390Z,33.7340
2023-01-17T07:00:14.799Z,33.7560
2023-01-17T07:01:17.389Z,33.8460
2023-01-17T07:02:19.582Z,33.8050
2023-01-17T07:03:19.798Z,33.7910
2023-01-17T07:04:22.223Z,33.7680
2023-01-17T07:05:24.601Z,33.7990
2023-01-17T07:06:27.013Z,33.7960
2023-01-17T07:07:27.146Z,33.8250
2023-01-17T07:08:29.509Z,33.7690
2023-01-17T07:09:31.849Z,33.7730
2023-01-17T07:10:34.208Z,33.6900
2023-01-17T07:11:36.575Z,33.8030
2023-01-17T07:12:36.758Z,33.7840
2023-01-17T07:13:39.076Z,33.8260
2023-01-17T07:14:41.434Z,33.8490
2023-01-17T07:15:43.780Z,33.8790
2023-01-17T07:16:46.289Z,33.8050
2023-01-17T07:17:46.338Z,33.8220
2023-01-17T07:18:48.711Z,33.7350
2023-01-17T07:19:51.054Z,33.7690
2023-01-17T07:20:53.344Z,33.7920
2023-01-17T07:21:55.831Z,33.8400
2023-01-17T07:22:55.878Z,33.8220
2023-01-17T07:23:58.173Z,33.8480
2023-01-17T07:25:00.514Z,33.8460
2023-01-17T07:26:02.794Z,33.9040
2023-01-17T07:27:05.130Z,33.8470
2023-01-17T07:28:07.364Z,33.7390
2023-01-17T07:29:07.504Z,33.7800
2023-01-17T07:30:09.789Z,33.7840
2023-01-17T07:31:12.140Z,33.7870
2023-01-17T07:32:14.448Z,33.7460
2023-01-17T07:33:16.732Z,33.8200
2023-01-17T07:34:19.004Z,33.8050
2023-01-17T07:35:19.126Z,33.7720
2023-01-17T07:36:21.437Z,33.7470
2023-01-17T07:37:23.803Z,33.7390
2023-01-17T07:38:26.151Z,33.6440
2023-01-17T07:39:28.528Z,33.5320
2023-01-17T07:40:32.235Z,33.5090
2023-01-17T07:41:31.126Z,33.4660
2023-01-17T07:42:33.559Z,33.5230
2023-01-17T07:43:35.923Z,33.5140
2023-01-17T07:44:40.574Z,33.5400
2023-01-17T07:45:38.497Z,33.4970
2023-01-17T07:46:40.933Z,33.4610
2023-01-17T07:47:43.314Z,33.4890
2023-01-17T07:48:45.666Z,33.5290
2023-01-17T07:49:48.024Z,33.4600
2023-01-17T07:50:48.372Z,33.5010
2023-01-17T07:51:50.615Z,33.4960
2023-01-17T07:52:52.965Z,33.3380
2023-01-17T07:53:55.296Z,33.3110
2023-01-17T07:54:57.609Z,33.3280
2023-01-17T07:55:59.933Z,33.3650
2023-01-17T07:57:02.288Z,33.4270
2023-01-17T07:58:04.611Z,33.5390
2023-01-17T07:59:06.891Z,33.4050
2023-01-17T08:00:07.084Z,33.3640
2023-01-17T08:01:09.572Z,33.3810
2023-01-17T08:02:11.745Z,33.3750
2023-01-17T08:03:14.117Z,33.4700
2023-01-17T08:04:16.466Z,33.4700
2023-01-17T08:05:18.749Z,33.4550
2023-01-17T08:06:18.963Z,33.2960
2023-01-17T08:07:21.173Z,33.1520
2023-01-17T08:08:23.541Z,33.3120
2023-01-17T08:09:25.812Z,33.3590
2023-01-17T08:10:28.161Z,33.4030
2023-01-17T08:11:30.477Z,33.4220
2023-01-17T08:12:30.705Z,33.4920
2023-01-17T08:13:33.107Z,33.4700
2023-01-17T08:14:35.475Z,33.4490
2023-01-17T08:15:37.864Z,33.3710
2023-01-17T08:16:38.193Z,33.2850
2023-01-17T08:17:40.511Z,33.2110
2023-01-17T08:18:42.931Z,33.2430
2023-01-17T08:19:45.295Z,33.3750
2023-01-17T08:20:45.570Z,33.2690
2023-01-17T08:21:47.968Z,33.1970
2023-01-17T08:22:50.321Z,33.2200
2023-01-17T08:23:52.764Z,33.2110
2023-01-17T08:24:52.921Z,33.2600
2023-01-17T08:25:55.292Z,33.3640
2023-01-17T08:26:57.655Z,33.4670
2023-01-17T08:28:00.032Z,33.3320
2023-01-17T08:29:02.419Z,33.1880
2023-01-17T08:30:04.762Z,33.1300
2023-01-17T08:31:07.121Z,33.2440
2023-01-17T08:32:09.536Z,33.1410
2023-01-17T08:33:11.923Z,33.0430
2023-01-17T08:34:12.205Z,33.0160
2023-01-17T08:35:14.561Z,33.0240
2023-01-17T08:36:16.974Z,32.9720
2023-01-17T08:37:19.423Z,33.1190
2023-01-17T08:38:19.599Z,33.1420
2023-01-17T08:39:21.988Z,33.0190
2023-01-17T08:40:24.309Z,32.9790
2023-01-17T08:41:26.719Z,32.9080
2023-01-17T08:42:26.945Z,33.0200
2023-01-17T08:43:29.314Z,33.0020
2023-01-17T08:44:31.695Z,33.0230
2023-01-17T08:45:34.063Z,32.9620
2023-01-17T08:46:36.402Z,33.0640
2023-01-17T08:47:36.661Z,32.9740
2023-01-17T08:48:39.052Z,32.9370
2023-01-17T08:49:41.420Z,33.0050
2023-01-17T08:50:43.783Z,32.9670
2023-01-17T08:51:44.008Z,32.9320
2023-01-17T08:52:46.393Z,32.9550
2023-01-17T08:53:48.737Z,32.8770
2023-01-17T08:54:51.162Z,32.9790
2023-01-17T08:55:51.358Z,33.0790
2023-01-17T08:56:53.762Z,33.0200
2023-01-17T08:57:56.155Z,33.0040
2023-01-17T08:58:58.560Z,32.9630
2023-01-17T09:00:00.944Z,33.0620
2023-01-17T09:01:01.286Z,33.0420
2023-01-17T09:02:03.685Z,32.9820
2023-01-17T09:03:05.980Z,33.1120
2023-01-17T09:04:08.451Z,33.1520
2023-01-17T09:05:08.703Z,33.0980
2023-01-17T09:06:11.116Z,33.1580
2023-01-17T09:07:11.349Z,33.2750
2023-01-17T09:08:13.629Z,33.2050
2023-01-17T09:09:15.924Z,33.1040
2023-01-17T09:10:18.360Z,33.2300
2023-01-17T09:11:20.585Z,33.2900
2023-01-17T09:12:22.900Z,33.1380
2023-01-17T09:13:23.043Z,32.9710
2023-01-17T09:14:25.375Z,32.9430
2023-01-17T09:15:27.750Z,32.8740
2023-01-17T09:16:30.100Z,32.9510
2023-01-17T09:17:32.408Z,33.1520
2023-01-17T09:18:34.743Z,33.2790
2023-01-17T09:19:34.965Z,33.2510
2023-01-17T09:20:37.356Z,33.2270
2023-01-17T09:21:39.695Z,33.2890
2023-01-17T09:22:42.076Z,33.1200
2023-01-17T09:23:42.376Z,33.0880
2023-01-17T09:24:44.737Z,33.0050
2023-01-17T09:25:48.483Z,32.8880
2023-01-17T09:26:49.519Z,33.0420
2023-01-17T09:27:49.740Z,32.9610
2023-01-17T09:28:52.094Z,33.0940
2023-01-17T09:29:54.423Z,32.9770
2023-01-17T09:30:56.857Z,33.0480
2023-01-17T09:31:59.095Z,33.1950
2023-01-17T09:33:01.407Z,33.2520
2023-01-17T09:34:03.678Z,33.3390
2023-01-17T09:35:05.957Z,33.3920
2023-01-17T09:37:38.653Z,33.4490
2023-01-17T09:38:40.883Z,33.4020
2023-01-17T09:39:43.193Z,33.3640
2023-01-17T09:40:45.494Z,33.2950
2023-01-17T09:41:45.650Z,33.2360
2023-01-17T09:42:48.120Z,33.3320
2023-01-17T09:43:50.305Z,33.2790
2023-01-17T09:44:52.647Z,33.2650
2023-01-17T09:45:55.010Z,33.2970
2023-01-17T09:46:55.227Z,33.3270
2023-01-17T09:47:57.549Z,33.3610
2023-01-17T09:48:59.866Z,33.4140
2023-01-17T09:50:02.153Z,33.3630
2023-01-17T09:51:04.482Z,33.2430
2023-01-17T09:52:04.572Z,33.2040
2023-01-17T09:53:06.875Z,33.2160
2023-01-17T09:54:09.133Z,33.2710
2023-01-17T09:55:11.420Z,33.2640
2023-01-17T09:56:13.665Z,33.2650
2023-01-17T09:57:15.962Z,33.2860
2023-01-17T09:58:18.326Z,33.2820
2023-01-17T09:59:19.105Z,33.2860
2023-01-17T10:00:20.864Z,33.2650
2023-01-17T10:01:23.479Z,33.2860
2023-01-17T10:02:26.729Z,33.3010
2023-01-17T10:03:28.203Z,33.2650
2023-01-17T10:04:28.270Z,33.3350
2023-01-17T10:05:30.659Z,33.3060
2023-01-17T10:06:33.062Z,33.2620
2023-01-17T10:07:35.446Z,33.2900
2023-01-17T10:08:35.672Z,33.3280
2023-01-17T10:09:37.963Z,33.2280
2023-01-17T10:10:40.359Z,33.1910
2023-01-17T10:11:42.726Z,33.2890
2023-01-17T10:12:45.119Z,33.2520
2023-01-17T10:13:45.365Z,33.2040
2023-01-17T10:14:47.684Z,33.2040
2023-01-17T10:15:50.048Z,33.1640
2023-01-17T10:16:50.391Z,33.1950
2023-01-17T10:17:52.722Z,33.2810
2023-01-17T10:18:55.122Z,33.3030
2023-01-17T10:19:57.468Z,33.3480
2023-01-17T10:20:59.798Z,33.2650
2023-01-17T10:22:00.005Z,33.2520
2023-01-17T10:23:02.356Z,33.2410
2023-01-17T10:24:04.780Z,33.1850
2023-01-17T10:25:07.094Z,33.2040
2023-01-17T10:26:09.439Z,33.1690
2023-01-17T10:27:09.544Z,33.1950
2023-01-17T10:28:11.891Z,33.2200
2023-01-17T10:29:14.263Z,33.1090
2023-01-17T10:30:16.562Z,33.1840
2023-01-17T10:31:18.900Z,33.2230
2023-01-17T10:32:19.057Z,33.2660
2023-01-17T10:33:21.391Z,33.2860
2023-01-17T10:34:23.743Z,33.1810
2023-01-17T10:35:26.041Z,33.2270
2023-01-17T10:36:28.360Z,33.1690
2023-01-17T10:37:30.688Z,33.1850
2023-01-17T10:38:30.886Z,33.1690
2023-01-17T10:39:33.244Z,33.1170
2023-01-17T10:40:35.573Z,33.0910
2023-01-17T10:41:38.002Z,33.0460
2023-01-17T10:42:40.364Z,33.1310
2023-01-17T10:43:40.616Z,33.0680
2023-01-17T10:44:43.150Z,32.9930
2023-01-17T10:45:45.466Z,33.0690
2023-01-17T10:46:47.827Z,33.0300
2023-01-17T10:47:48.037Z,32.9660
2023-01-17T10:48:50.365Z,32.9470
2023-01-17T10:49:52.790Z,32.9290
2023-01-17T10:50:55.092Z,32.9400
2023-01-17T10:51:57.497Z,32.9360
2023-01-17T10:52:59.889Z,32.9060
2023-01-17T10:54:02.267Z,32.8710
2023-01-17T10:55:04.691Z,32.8710
2023-01-17T10:56:04.932Z,32.8970
2023-01-17T10:57:07.301Z,32.8790
2023-01-17T10:58:09.673Z,32.8300
2023-01-17T10:59:12.069Z,32.9640
2023-01-17T11:00:12.334Z,33.0850
2023-01-17T11:01:14.733Z,33.0690
2023-01-17T11:02:17.137Z,33.0310
2023-01-17T11:03:19.323Z,32.9140
2023-01-17T11:04:21.706Z,32.9950
2023-01-17T11:05:21.929Z,32.9310
2023-01-17T11:06:24.280Z,32.9250
2023-01-17T11:07:26.651Z,32.9960
2023-01-17T11:08:28.973Z,33.0850
2023-01-17T11:09:29.161Z,33.0180
2023-01-17T11:10:31.546Z,32.9670
2023-01-17T11:11:33.789Z,33.0380
2023-01-17T11:12:36.192Z,33.0950
2023-01-17T11:13:38.507Z,33.1770
2023-01-17T11:14:38.714Z,33.1430
2023-01-17T11:15:41.227Z,32.9770
2023-01-17T11:16:43.445Z,32.9090
2023-01-17T11:17:45.794Z,32.8200
2023-01-17T11:18:56.693Z,32.8090
2023-01-17T11:19:58.040Z,33.0290
2023-01-17T11:21:00.480Z,33.2960
2023-01-17T11:22:02.829Z,33.4440
2023-01-17T11:23:03.075Z,33.4440
2023-01-17T11:24:05.464Z,33.4040
2023-01-17T11:25:07.852Z,33.3490
2023-01-17T11:26:08.053Z,33.2780
2023-01-17T11:27:10.307Z,33.3040
2023-01-17T11:28:12.600Z,33.3100
2023-01-17T11:29:14.921Z,33.2460
2023-01-17T11:30:17.314Z,33.2650
2023-01-17T11:31:19.618Z,33.3000
2023-01-17T11:32:21.809Z,33.2600
2023-01-17T11:33:24.156Z,33.2490
2023-01-17T11:34:26.474Z,33.1950
2023-01-17T11:35:28.799Z,33.2670
2023-01-17T11:36:31.134Z,33.3280
2023-01-17T11:37:33.458Z,33.3810
2023-01-17T11:38:35.802Z,33.5300
2023-01-17T11:39:38.095Z,33.4820
2023-01-17T11:40:40.395Z,33.4210
2023-01-17T11:41:42.751Z,33.3220
2023-01-17T11:42:44.970Z,33.2620
2023-01-17T11:43:47.249Z,33.2960
2023-01-17T11:44:49.530Z,33.2900
2023-01-17T11:45:49.711Z,33.2370
2023-01-17T11:46:51.996Z,33.1620
2023-01-17T11:47:54.285Z,33.1400
2023-01-17T11:48:56.647Z,33.1600
2023-01-17T11:49:58.909Z,33.2480
2023-01-17T11:51:01.202Z,33.2320
2023-01-17T11:52:03.536Z,33.2860
2023-01-17T11:53:03.663Z,33.3700
2023-01-17T11:54:06.001Z,33.4130
2023-01-17T11:55:08.280Z,33.3730
2023-01-17T11:56:10.591Z,33.3100
2023-01-17T11:57:12.927Z,33.2680
2023-01-17T11:58:15.252Z,33.4380
2023-01-17T11:59:17.589Z,33.4790
2023-01-17T12:00:19.903Z,33.4500
2023-01-17T12:01:22.379Z,33.3910
2023-01-17T12:02:24.565Z,33.3940
2023-01-17T12:03:26.906Z,33.4540
2023-01-17T12:04:29.159Z,33.4380
2023-01-17T12:05:31.494Z,33.3890
2023-01-17T12:06:34.438Z,33.3080
2023-01-17T12:07:36.213Z,33.3260
2023-01-17T12:08:36.394Z,33.3840
2023-01-17T12:09:38.732Z,33.3310
2023-01-17T12:10:41.085Z,33.2620
2023-01-17T12:11:43.375Z,33.2890
2023-01-17T12:12:45.796Z,33.3240
2023-01-17T12:13:48.054Z,33.4260
2023-01-17T12:14:50.426Z,33.4690
2023-01-17T12:15:52.789Z,33.5180
2023-01-17T12:16:55.051Z,33.4890
2023-01-17T12:17:55.313Z,33.5260
2023-01-17T12:18:57.722Z,33.6000
2023-01-17T12:20:00.139Z,33.5260
2023-01-17T12:21:00.415Z,33.5700
2023-01-17T12:22:02.815Z,33.5430
2023-01-17T12:23:05.267Z,33.5320
2023-01-17T12:24:07.628Z,33.5120
2023-01-17T12:25:10.046Z,33.5430
2023-01-17T12:26:10.276Z,33.6070
2023-01-17T12:27:12.682Z,33.5750
2023-01-17T12:28:15.087Z,33.5120
2023-01-17T12:29:15.281Z,33.4630
2023-01-17T12:30:17.622Z,33.6390
2023-01-17T12:31:19.922Z,33.6650